Aviation Digital Data Service (ADDS)

Output produced by METARs form (1157 UTC 23 September 2018)
found at http://www.aviationweather.gov/metar/data/
 
KPDK 231153Z 00000KT 8SM CLR 19/18 A3007 RMK AO2 SLP171 T01890178 10206 20183 53006
KPDK 231139Z 2312/2412 VRB03KT P6SM SCT250 
     FM231500 16005KT P6SM SCT030 
     FM231700 13007KT P6SM BKN050 
     FM232300 10005KT P6SM SCT060 BKN150 
     FM240900 11005KT P6SM VCSH BKN015